Meteo Giornale » Osservazioni meteo Stati Uniti (USA) » Harlingen Rio Grande Valley
ore: 11:52 - Osservazioni Meteo Harlingen Rio Grande Valley
Lat. 26° 13' N Lon. 97° 39' W Alt. 10 metri s.l.m.
36 °C
Sereno
Temp. 24 Ore
24 °C
39 °C
Sud/Sud-Est
20.3 Km/h
Dew point 22 °C
Umidità 44 %
Visibilità 10 Km
Il sole sorge alle ore 07:10
Il sole tramonta alle ore 19:50
| Data e Ora | Cielo e Fenomeni | T °C | DP °C | Um. % | Pres. hPa | Vis. km | Vento km/h | |
|---|---|---|---|---|---|---|---|---|
| Oggi h: 11:52 | Sereno | 36 | 22 | 44 | 1014 | 10 | S/SE 20.3 | |
| Oggi h: 10:52 | Sereno | 34 | 23 | 52 | 1015 | 10 | S/SE 24 | |
| Oggi h: 09:52 | Sereno | 32 | 24 | 62 | 1014 | 10 | S/SE 25.9 | |
| Oggi h: 08:52 | Sereno | 29 | 25 | 79 | 1014 | 10 | S 14.8 | |
| Oggi h: 07:52 | Sereno | 24 | 23 | 94 | 1014 | 10 | N 0 | |
| Oggi h: 06:52 | Sereno | 24 | 23 | 94 | 1013 | 10 | S/SE 9.3 | |
| Oggi h: 05:52 | Sereno | 24 | 23 | 94 | 1013 | 10 | SE 9.3 | |
| Oggi h: 04:52 | Sereno | 26 | 24 | 88 | 1013 | 10 | S 11.1 | |
| Oggi h: 03:52 | Sereno | 26 | 24 | 88 | 1013 | 10 | S 13 | |
| Oggi h: 02:52 | Sereno | 26 | 24 | 88 | 1014 | 10 | S/SE 11.1 | |
| Oggi h: 01:52 | Sereno | 25 | 23 | 88 | 1014 | 10 | S/SE 11.1 | |
| Oggi h: 00:52 | Sereno | 26 | 24 | 88 | 1014 | 10 | S/SE 13 | |
| Ieri h: 23:52 | Sereno | 27 | 24 | 83 | 1014 | 10 | S/SE 11.1 | |
| Ieri h: 22:52 | Sereno | 28 | 24 | 78 | 1014 | 10 | SE 14.8 | |
| Ieri h: 21:52 | Sereno | 28 | 24 | 78 | 1014 | 10 | SE 18.5 | |
| Ieri h: 20:52 | Sereno | 29 | 24 | 74 | 1012 | 10 | SE 22.2 | |
| Ieri h: 19:52 | Sereno | 30 | 24 | 70 | 1012 | 10 | E/SE 33.3 | |
| Ieri h: 18:52 | Sereno | 32 | 24 | 62 | 1011 | 10 | E/SE 29.6 | |
| Ieri h: 17:52 | Sereno | 34 | 23 | 52 | 1011 | 10 | E/SE 35.2 | |
| Ieri h: 16:52 | Sereno | 36 | 22 | 44 | 1011 | 10 | E/SE 35.2 | |
| Ieri h: 15:52 | Sereno | 38 | 22 | 39 | 1012 | 10 | SE 31.5 | |
| Ieri h: 14:52 | Sereno | 39 | 19 | 31 | 1012 | 10 | S 24 | |
| Ieri h: 13:52 | Sereno | 38 | 19 | 33 | 1013 | 10 | SE 16.7 | |
| Ieri h: 12:52 | Sereno | 38 | 19 | 33 | 1014 | 10 | S 20.3 | |



